createdAt,value
2022-07-28T00:01:01.846Z,96801.38
2022-07-28T00:03:58.710Z,96795.09
2022-07-28T00:06:55.536Z,96805.03
2022-07-28T00:09:58.263Z,96803.16
2022-07-28T00:12:57.232Z,96807.50
2022-07-28T00:15:54.167Z,96800.38
2022-07-28T00:18:51.052Z,96805.44
2022-07-28T00:21:48.255Z,96793.63
2022-07-28T00:24:45.253Z,96797.78
2022-07-28T00:27:42.173Z,96791.31
2022-07-28T00:30:39.164Z,96788.97
2022-07-28T00:33:37.118Z,96789.63
2022-07-28T00:36:33.989Z,96782.56
2022-07-28T00:39:30.845Z,96775.69
2022-07-28T00:42:27.709Z,96779.78
2022-07-28T00:45:24.572Z,96770.34
2022-07-28T00:48:21.427Z,96773.03
2022-07-28T00:51:21.551Z,96769.25
2022-07-28T00:54:18.468Z,96768.66
2022-07-28T00:57:15.338Z,96775.38
2022-07-28T01:00:12.675Z,96772.38
2022-07-28T01:03:10.443Z,96771.91
2022-07-28T01:06:17.589Z,96770.19
2022-07-28T01:09:50.220Z,96782.47
2022-07-28T01:13:04.089Z,96779.63
2022-07-28T01:16:05.268Z,96773.81
2022-07-28T01:19:09.913Z,96778.91
2022-07-28T01:22:11.197Z,96765.78
2022-07-28T01:25:23.465Z,96772.00
2022-07-28T01:28:59.292Z,96769.00
2022-07-28T01:32:13.370Z,96768.41
2022-07-28T01:35:19.540Z,96764.78
2022-07-28T01:38:18.983Z,96769.38
2022-07-28T01:41:21.177Z,96765.59
2022-07-28T01:44:23.089Z,96770.81
2022-07-28T01:47:23.808Z,96764.19
2022-07-28T01:50:23.950Z,96755.81
2022-07-28T01:53:22.707Z,96755.97
2022-07-28T01:56:21.610Z,96751.03
2022-07-28T01:59:19.321Z,96749.16
2022-07-28T02:02:18.795Z,96750.91
2022-07-28T02:05:22.157Z,96753.13
2022-07-28T02:08:22.497Z,96752.16
2022-07-28T02:11:37.812Z,96749.16
2022-07-28T02:14:36.410Z,96748.03
2022-07-28T02:17:35.180Z,96732.88
2022-07-28T02:20:32.578Z,96735.56
2022-07-28T02:23:29.902Z,96735.22
2022-07-28T02:26:35.367Z,96733.00
2022-07-28T02:29:51.901Z,96732.06
2022-07-28T02:32:53.901Z,96740.28
2022-07-28T02:35:57.574Z,96737.44
2022-07-28T02:39:02.642Z,96733.31
2022-07-28T02:42:07.269Z,96729.03
2022-07-28T02:45:08.354Z,96731.59
2022-07-28T02:48:14.796Z,96734.41
2022-07-28T02:51:13.773Z,96728.25
2022-07-28T02:54:12.389Z,96727.94
2022-07-28T02:57:12.338Z,96727.47
2022-07-28T03:00:11.230Z,96728.09
2022-07-28T03:03:09.803Z,96729.03
2022-07-28T03:06:06.813Z,96728.56
2022-07-28T03:09:04.218Z,96731.41
2022-07-28T03:12:04.747Z,96727.75
2022-07-28T03:15:01.594Z,96734.28
2022-07-28T03:18:00.841Z,96746.59
2022-07-28T03:20:58.372Z,96737.75
2022-07-28T03:23:55.846Z,96739.78
2022-07-28T03:27:07.537Z,96732.84
2022-07-28T03:30:11.441Z,96740.28
2022-07-28T03:33:08.446Z,96732.50
2022-07-28T03:36:15.469Z,96731.41
2022-07-28T03:39:15.739Z,96733.13
2022-07-28T03:42:15.748Z,96733.78
2022-07-28T03:45:13.493Z,96727.75
2022-07-28T03:48:10.355Z,96740.06
2022-07-28T03:51:07.215Z,96745.00
2022-07-28T03:54:04.281Z,96743.63
2022-07-28T03:57:01.220Z,96739.66
2022-07-28T03:59:58.046Z,96737.75
2022-07-28T04:02:54.932Z,96735.88
2022-07-28T04:05:51.946Z,96744.88
2022-07-28T04:08:48.778Z,96739.66
2022-07-28T04:11:45.948Z,96733.31
2022-07-28T04:14:42.772Z,96741.38
2022-07-28T04:17:39.686Z,96738.88
2022-07-28T04:20:36.615Z,96741.72
2022-07-28T04:23:33.659Z,96736.16
2022-07-28T04:26:30.771Z,96734.88
2022-07-28T04:29:27.760Z,96731.59
2022-07-28T04:32:24.714Z,96733.97
2022-07-28T04:35:24.244Z,96736.66
2022-07-28T04:38:21.138Z,96730.94
2022-07-28T04:41:18.064Z,96735.56
2022-07-28T04:44:17.284Z,96733.97
2022-07-28T04:47:14.603Z,96744.09
2022-07-28T04:50:15.162Z,96744.56
2022-07-28T04:53:12.860Z,96730.81
2022-07-28T04:56:10.078Z,96740.47
2022-07-28T04:59:07.187Z,96734.91
2022-07-28T05:02:04.400Z,96731.28
2022-07-28T05:05:01.307Z,96732.53
2022-07-28T05:07:58.252Z,96733.97
2022-07-28T05:10:56.377Z,96743.19
2022-07-28T05:13:53.351Z,96745.19
2022-07-28T05:16:50.278Z,96738.88
2022-07-28T05:19:47.154Z,96741.28
2022-07-28T05:22:50.938Z,96737.75
2022-07-28T05:25:47.932Z,96742.66
2022-07-28T05:28:44.860Z,96739.50
2022-07-28T05:31:41.845Z,96728.06
2022-07-28T05:34:38.811Z,96735.81
2022-07-28T05:37:37.164Z,96736.47
2022-07-28T05:40:34.040Z,96733.63
2022-07-28T05:43:30.929Z,96740.41
2022-07-28T05:46:28.490Z,96733.63
2022-07-28T05:49:25.450Z,96730.59
2022-07-28T05:52:22.324Z,96737.38
2022-07-28T05:55:19.498Z,96739.09
2022-07-28T05:58:16.494Z,96733.41
2022-07-28T06:01:13.395Z,96735.13
2022-07-28T06:04:26.581Z,96738.63
2022-07-28T06:07:42.874Z,96746.97
2022-07-28T06:10:58.994Z,96743.19
2022-07-28T06:13:55.854Z,96740.59
2022-07-28T06:16:52.797Z,96735.47
2022-07-28T06:19:49.667Z,96735.31
2022-07-28T06:22:49.695Z,96735.13
2022-07-28T06:25:47.926Z,96725.94
2022-07-28T06:28:44.946Z,96726.50
2022-07-28T06:31:41.832Z,96735.72
2022-07-28T06:34:38.820Z,96741.34
2022-07-28T06:37:35.706Z,96736.50
2022-07-28T06:40:33.039Z,96740.28
2022-07-28T06:43:30.617Z,96740.78
2022-07-28T06:46:27.664Z,96737.63
2022-07-28T06:49:24.685Z,96732.28
2022-07-28T06:52:22.153Z,96737.63
2022-07-28T06:55:19.030Z,96741.22
2022-07-28T06:58:16.010Z,96734.59
2022-07-28T07:01:14.742Z,96720.81
2022-07-28T07:04:11.943Z,96731.47
2022-07-28T07:07:14.902Z,96730.94
2022-07-28T07:10:14.241Z,96741.25
2022-07-28T07:13:11.141Z,96730.78
2022-07-28T07:16:10.834Z,96734.28
2022-07-28T07:19:10.448Z,96730.38
2022-07-28T07:22:09.479Z,96712.34
2022-07-28T07:25:14.968Z,96724.06
2022-07-28T07:28:11.929Z,96727.53
2022-07-28T07:31:08.906Z,96723.50
2022-07-28T07:34:06.544Z,96717.25
2022-07-28T07:37:03.379Z,96707.31
2022-07-28T07:40:01.615Z,96699.41
2022-07-28T07:42:58.502Z,96698.19
2022-07-28T07:45:55.347Z,96695.03
2022-07-28T07:48:52.277Z,96699.94
2022-07-28T07:51:49.152Z,96702.00
2022-07-28T07:54:46.168Z,96696.13
2022-07-28T07:57:44.260Z,96691.34
2022-07-28T08:00:41.084Z,96690.19
2022-07-28T08:03:38.008Z,96688.03
2022-07-28T08:06:36.250Z,96691.03
2022-07-28T08:09:36.695Z,96693.44
2022-07-28T08:12:33.991Z,96684.34
2022-07-28T08:15:31.159Z,96689.16
2022-07-28T08:18:28.001Z,96691.75
2022-07-28T08:21:26.285Z,96694.28
2022-07-28T08:24:32.647Z,96691.69
2022-07-28T08:27:30.759Z,96693.44
2022-07-28T08:30:32.420Z,96681.81
2022-07-28T08:33:30.493Z,96683.03
2022-07-28T08:36:28.136Z,96680.44
2022-07-28T08:39:24.976Z,96678.22
2022-07-28T08:43:00.758Z,96678.59
2022-07-28T08:46:01.234Z,96676.31
2022-07-28T08:48:58.384Z,96675.97
2022-07-28T08:51:57.936Z,96676.88
2022-07-28T08:54:57.973Z,96678.34
2022-07-28T08:57:58.665Z,96681.13
2022-07-28T09:00:55.743Z,96667.88
2022-07-28T09:03:52.845Z,96677.22
2022-07-28T09:06:49.783Z,96670.03
2022-07-28T09:09:49.606Z,96668.56
2022-07-28T09:12:46.750Z,96660.03
2022-07-28T09:15:46.380Z,96664.38
2022-07-28T09:18:43.330Z,96667.88
2022-07-28T09:21:43.147Z,96662.63
2022-07-28T09:24:44.506Z,96661.88
2022-07-28T09:27:45.032Z,96659.09
2022-07-28T09:30:53.929Z,96663.97
2022-07-28T09:34:09.133Z,96656.38
2022-07-28T09:37:06.072Z,96647.09
2022-07-28T09:40:14.749Z,96654.75
2022-07-28T09:43:11.682Z,96659.56
2022-07-28T09:46:17.697Z,96654.97
2022-07-28T09:49:14.837Z,96646.25
2022-07-28T09:52:12.420Z,96649.66
2022-07-28T09:55:11.760Z,96643.41
2022-07-28T09:58:11.552Z,96647.56
2022-07-28T10:01:15.606Z,96636.66
2022-07-28T10:04:13.381Z,96642.72
2022-07-28T10:07:15.736Z,96629.88
2022-07-28T10:10:12.578Z,96626.56
2022-07-28T10:13:09.632Z,96628.44
2022-07-28T10:16:13.078Z,96633.75
2022-07-28T10:19:10.068Z,96625.09
2022-07-28T10:22:08.170Z,96625.91
2022-07-28T10:25:12.514Z,96623.19
2022-07-28T10:28:11.509Z,96611.53
2022-07-28T10:31:14.335Z,96604.75
2022-07-28T10:34:24.657Z,96612.53
2022-07-28T10:37:25.556Z,96605.50
2022-07-28T10:40:26.597Z,96604.28
2022-07-28T10:43:26.462Z,96607.28
2022-07-28T10:46:24.735Z,96608.31
2022-07-28T10:49:22.254Z,96594.25
2022-07-28T10:56:09.789Z,96597.00
2022-07-28T10:59:29.063Z,96597.03
2022-07-28T11:02:46.974Z,96605.25
2022-07-28T11:05:46.173Z,96607.22
2022-07-28T11:08:43.023Z,96599.41
2022-07-28T11:11:57.889Z,96589.25
2022-07-28T11:14:56.049Z,96583.34
2022-07-28T11:18:08.799Z,96579.81
2022-07-28T11:21:07.912Z,96573.56
2022-07-28T11:24:08.073Z,96563.25
2022-07-28T11:27:04.920Z,96559.69
2022-07-28T11:30:01.775Z,96561.44
2022-07-28T11:33:00.538Z,96545.75
2022-07-28T11:35:59.284Z,96559.44
2022-07-28T11:39:26.655Z,96551.19
2022-07-28T11:42:34.413Z,96552.16
2022-07-28T11:45:38.501Z,96551.94
2022-07-28T11:48:40.435Z,96544.97
2022-07-28T11:51:40.378Z,96545.69
2022-07-28T11:54:51.626Z,96542.75
2022-07-28T11:57:52.055Z,96538.44
2022-07-28T12:00:50.746Z,96532.28
2022-07-28T12:03:55.534Z,96530.50
2022-07-28T12:06:53.531Z,96532.78
2022-07-28T12:09:51.258Z,96522.97
2022-07-28T12:13:00.726Z,96531.19
2022-07-28T12:15:57.576Z,96528.72
2022-07-28T12:18:55.275Z,96520.19
2022-07-28T12:21:56.824Z,96518.47
2022-07-28T12:24:58.050Z,96523.69
2022-07-28T12:27:56.102Z,96520.00
2022-07-28T12:30:53.264Z,96526.78
2022-07-28T12:33:53.655Z,96523.59
2022-07-28T12:36:51.682Z,96519.69
2022-07-28T12:39:51.581Z,96511.78
2022-07-28T12:42:53.919Z,96517.72
2022-07-28T12:45:50.938Z,96513.44
2022-07-28T12:48:48.529Z,96513.22
2022-07-28T12:51:45.500Z,96503.16
2022-07-28T12:54:42.591Z,96492.16
2022-07-28T12:57:52.675Z,96496.50
2022-07-28T13:00:51.021Z,96480.50
2022-07-28T13:03:53.519Z,96497.88
2022-07-28T13:06:56.928Z,96482.66
2022-07-28T13:10:11.461Z,96484.31
2022-07-28T13:13:09.406Z,96482.88
2022-07-28T13:16:17.430Z,96484.16
2022-07-28T13:19:21.691Z,96473.56
2022-07-28T13:22:30.581Z,96477.44
2022-07-28T13:25:28.286Z,96469.06
2022-07-28T13:28:28.692Z,96478.47
2022-07-28T13:31:25.582Z,96473.81
2022-07-28T13:34:22.494Z,96469.75
2022-07-28T13:37:19.490Z,96461.53
2022-07-28T13:40:17.082Z,96462.91
2022-07-28T13:43:13.911Z,96464.09
2022-07-28T13:46:10.959Z,96468.97
2022-07-28T13:49:07.865Z,96460.41
2022-07-28T13:52:07.338Z,96458.84
2022-07-28T13:55:10.428Z,96461.59
2022-07-28T13:58:10.149Z,96461.91
2022-07-28T14:01:07.109Z,96460.97
2022-07-28T14:04:04.866Z,96460.34
2022-07-28T14:07:01.787Z,96460.25
2022-07-28T14:09:58.671Z,96468.16
2022-07-28T14:12:56.481Z,96451.63
2022-07-28T14:16:02.179Z,96457.72
2022-07-28T14:19:02.633Z,96452.41
2022-07-28T14:21:59.458Z,96455.22
2022-07-28T14:24:56.389Z,96464.66
2022-07-28T14:27:54.643Z,96455.13
2022-07-28T14:30:51.476Z,96451.06
2022-07-28T14:33:53.972Z,96450.22
2022-07-28T14:36:53.101Z,96451.41
2022-07-28T14:39:49.958Z,96454.56
2022-07-28T14:42:46.921Z,96453.56
2022-07-28T14:46:00.699Z,96452.25
2022-07-28T14:49:00.887Z,96453.81
2022-07-28T14:51:59.290Z,96443.38
2022-07-28T14:54:57.554Z,96438.44
2022-07-28T14:57:55.239Z,96436.16
2022-07-28T15:00:52.457Z,96433.41
2022-07-28T15:03:49.297Z,96437.22
2022-07-28T15:06:47.254Z,96437.88
2022-07-28T15:09:50.136Z,96441.22
2022-07-28T15:12:47.390Z,96440.78
2022-07-28T15:15:44.859Z,96440.16
2022-07-28T15:18:41.840Z,96442.22
2022-07-28T15:21:40.594Z,96446.44
2022-07-28T15:24:37.555Z,96443.59
2022-07-28T15:27:34.389Z,96446.06
2022-07-28T15:30:31.255Z,96448.78
2022-07-28T15:33:30.900Z,96441.66
2022-07-28T15:36:30.178Z,96441.50
2022-07-28T15:39:27.099Z,96452.09
2022-07-28T15:42:27.953Z,96445.06
2022-07-28T15:45:25.509Z,96442.91
2022-07-28T15:48:23.545Z,96437.97
2022-07-28T15:51:25.808Z,96436.13
2022-07-28T15:54:22.987Z,96438.53
2022-07-28T15:57:19.853Z,96437.25
2022-07-28T16:00:17.689Z,96439.22
2022-07-28T16:03:14.650Z,96439.63
2022-07-28T16:06:11.583Z,96438.53
2022-07-28T16:09:08.741Z,96438.19
2022-07-28T16:12:05.887Z,96440.88
2022-07-28T16:15:10.866Z,96438.06
2022-07-28T16:18:07.716Z,96436.69
2022-07-28T16:21:08.534Z,96432.19
2022-07-28T16:24:07.218Z,96428.53
2022-07-28T16:27:04.412Z,96431.00
2022-07-28T16:30:03.017Z,96427.88
2022-07-28T16:33:00.065Z,96421.63
2022-07-28T16:35:56.956Z,96427.63
2022-07-28T16:38:53.852Z,96432.97
2022-07-28T16:41:52.757Z,96420.91
2022-07-28T16:44:49.922Z,96423.88
2022-07-28T16:47:46.830Z,96420.41
2022-07-28T16:50:46.212Z,96418.84
2022-07-28T16:53:43.188Z,96419.22
2022-07-28T16:56:40.069Z,96420.88
2022-07-28T16:59:41.927Z,96421.22
2022-07-28T17:02:45.353Z,96420.84
2022-07-28T17:05:42.586Z,96425.75
2022-07-28T17:08:39.440Z,96424.97
2022-07-28T17:11:36.334Z,96422.25
2022-07-28T17:14:33.176Z,96423.06
2022-07-28T17:17:30.064Z,96420.19
2022-07-28T17:20:26.991Z,96428.19
2022-07-28T17:23:23.829Z,96425.06
2022-07-28T17:29:37.729Z,96429.75
2022-07-28T17:32:34.630Z,96423.53
2022-07-28T17:35:35.224Z,96425.09
2022-07-28T17:38:33.419Z,96427.00
2022-07-28T17:41:30.480Z,96430.97
2022-07-28T17:44:27.350Z,96419.63
2022-07-28T17:47:35.845Z,96426.25
2022-07-28T17:50:33.390Z,96425.50
2022-07-28T17:53:30.327Z,96415.34
2022-07-28T17:56:27.233Z,96426.66
2022-07-28T17:59:26.613Z,96423.53
2022-07-28T18:02:34.200Z,96420.44
2022-07-28T18:05:33.244Z,96425.06
2022-07-28T18:08:30.232Z,96426.22
2022-07-28T18:11:27.897Z,96416.06
2022-07-28T18:14:29.311Z,96422.34
2022-07-28T18:17:26.732Z,96419.59
2022-07-28T18:20:24.378Z,96432.91
2022-07-28T18:23:21.864Z,96429.75
2022-07-28T18:26:18.702Z,96428.88
2022-07-28T18:29:15.609Z,96421.13
2022-07-28T18:32:12.576Z,96415.91
2022-07-28T18:35:10.398Z,96435.31
2022-07-28T18:38:07.281Z,96437.28
2022-07-28T18:41:04.182Z,96423.38
2022-07-28T18:44:01.032Z,96440.75
2022-07-28T18:46:57.923Z,96446.78
2022-07-28T18:49:58.246Z,96452.88
2022-07-28T18:52:55.095Z,96446.88
2022-07-28T18:55:52.183Z,96462.50
2022-07-28T18:58:51.777Z,96473.38
2022-07-28T19:01:48.697Z,96477.88
2022-07-28T19:04:47.130Z,96472.72
2022-07-28T19:07:43.964Z,96482.94
2022-07-28T19:10:40.911Z,96487.72
2022-07-28T19:13:37.766Z,96497.06
2022-07-28T19:16:34.607Z,96495.00
2022-07-28T19:19:33.043Z,96504.66
2022-07-28T19:22:29.930Z,96505.81
2022-07-28T19:25:28.794Z,96498.97
2022-07-28T19:28:25.720Z,96504.06
2022-07-28T19:31:22.652Z,96508.56
2022-07-28T19:34:19.803Z,96503.50
2022-07-28T19:37:17.284Z,96519.66
2022-07-28T19:40:14.354Z,96526.22
2022-07-28T19:43:11.258Z,96514.19
2022-07-28T19:46:10.200Z,96523.50
2022-07-28T19:49:07.461Z,96525.28
2022-07-28T19:52:04.707Z,96518.97
2022-07-28T19:55:01.658Z,96523.88
2022-07-28T19:58:01.487Z,96531.34
2022-07-28T20:00:58.984Z,96535.41
2022-07-28T20:04:01.576Z,96530.94
2022-07-28T20:07:01.134Z,96529.50
2022-07-28T20:10:00.806Z,96531.50
2022-07-28T20:12:57.657Z,96534.00
2022-07-28T20:15:54.562Z,96542.00
2022-07-28T20:18:52.281Z,96534.31
2022-07-28T20:21:49.114Z,96544.91
2022-07-28T20:24:46.044Z,96547.09
2022-07-28T20:27:43.057Z,96545.38
2022-07-28T20:30:40.133Z,96546.16
2022-07-28T20:33:37.049Z,96542.25
2022-07-28T20:36:37.193Z,96536.69
2022-07-28T20:39:45.095Z,96543.41
2022-07-28T20:42:43.683Z,96542.22
2022-07-28T20:45:40.541Z,96535.91
2022-07-28T20:48:37.534Z,96539.72
2022-07-28T20:51:34.437Z,96544.56
2022-07-28T20:54:32.367Z,96549.94
2022-07-28T20:57:29.207Z,96542.06
2022-07-28T21:00:26.047Z,96553.16
2022-07-28T21:03:22.891Z,96551.56
2022-07-28T21:06:19.743Z,96555.31
2022-07-28T21:09:17.319Z,96561.63
2022-07-28T21:12:14.196Z,96559.47
2022-07-28T21:15:11.872Z,96568.69
2022-07-28T21:18:09.518Z,96574.09
2022-07-28T21:21:06.373Z,96590.81
2022-07-28T21:24:03.555Z,96582.69
2022-07-28T21:27:00.383Z,96592.41
2022-07-28T21:32:52.992Z,96602.22
2022-07-28T21:35:50.295Z,96609.19
2022-07-28T21:38:47.143Z,96598.34
2022-07-28T21:41:43.973Z,96595.16
2022-07-28T21:44:40.888Z,96606.28
2022-07-28T21:47:37.730Z,96610.19
2022-07-28T21:50:37.424Z,96618.47
2022-07-28T21:53:34.265Z,96608.81
2022-07-28T21:56:34.220Z,96616.22
2022-07-28T21:59:31.088Z,96605.63
2022-07-28T22:02:28.212Z,96601.31
2022-07-28T22:05:26.065Z,96604.25
2022-07-28T22:08:24.122Z,96600.47
2022-07-28T22:11:23.931Z,96596.72
2022-07-28T22:14:20.806Z,96601.41
2022-07-28T22:17:17.654Z,96609.44
2022-07-28T22:20:14.606Z,96602.28
2022-07-28T22:23:28.370Z,96614.44
2022-07-28T22:26:26.236Z,96607.44
2022-07-28T22:29:23.080Z,96603.97
2022-07-28T22:32:27.013Z,96612.81
2022-07-28T22:35:26.753Z,96622.00
2022-07-28T22:38:23.907Z,96617.94
2022-07-28T22:41:21.521Z,96619.34
2022-07-28T22:44:18.812Z,96633.72
2022-07-28T22:47:16.083Z,96618.06
2022-07-28T22:50:13.017Z,96613.50
2022-07-28T22:53:09.932Z,96611.25
2022-07-28T22:56:09.290Z,96609.31
2022-07-28T22:59:07.378Z,96607.41
2022-07-28T23:02:04.224Z,96606.16
2022-07-28T23:05:01.508Z,96618.50
2022-07-28T23:07:58.983Z,96614.28
2022-07-28T23:10:55.969Z,96616.41
2022-07-28T23:13:52.815Z,96611.84
2022-07-28T23:16:49.860Z,96604.22
2022-07-28T23:19:46.841Z,96615.94
2022-07-28T23:22:43.753Z,96608.25
2022-07-28T23:25:43.091Z,96610.78
2022-07-28T23:28:39.983Z,96605.09
2022-07-28T23:31:36.932Z,96604.22
2022-07-28T23:34:33.807Z,96601.06
2022-07-28T23:37:30.636Z,96605.72
2022-07-28T23:40:27.667Z,96605.97
2022-07-28T23:43:24.501Z,96592.50
2022-07-28T23:46:21.793Z,96598.19
2022-07-28T23:49:19.224Z,96597.50
2022-07-28T23:52:16.126Z,96597.91
2022-07-28T23:55:12.979Z,96585.25
2022-07-28T23:58:09.824Z,96588.03
